sensor_id;sensor_type;location;lat;lon;timestamp;P1;durP1;ratioP1;P2;durP2;ratioP2
5688;SDS011;2869;50.432;8.680;2023-02-16T00:00:50;186.93;;;38.40;;
5688;SDS011;2869;50.432;8.680;2023-02-16T00:03:17;212.20;;;39.00;;
5688;SDS011;2869;50.432;8.680;2023-02-16T00:05:45;222.83;;;38.70;;
5688;SDS011;2869;50.432;8.680;2023-02-16T00:08:12;203.40;;;37.70;;
5688;SDS011;2869;50.432;8.680;2023-02-16T00:10:38;171.50;;;38.13;;
5688;SDS011;2869;50.432;8.680;2023-02-16T00:13:13;170.83;;;38.60;;
5688;SDS011;2869;50.432;8.680;2023-02-16T00:16:03;134.70;;;36.37;;
5688;SDS011;2869;50.432;8.680;2023-02-16T00:18:30;135.80;;;34.50;;
5688;SDS011;2869;50.432;8.680;2023-02-16T00:20:57;119.17;;;32.80;;
5688;SDS011;2869;50.432;8.680;2023-02-16T00:23:23;161.27;;;35.83;;
5688;SDS011;2869;50.432;8.680;2023-02-16T00:25:50;157.77;;;38.07;;
5688;SDS011;2869;50.432;8.680;2023-02-16T00:28:17;139.17;;;37.90;;
5688;SDS011;2869;50.432;8.680;2023-02-16T00:30:45;217.80;;;37.70;;
5688;SDS011;2869;50.432;8.680;2023-02-16T00:33:15;154.47;;;36.97;;
5688;SDS011;2869;50.432;8.680;2023-02-16T00:35:44;223.87;;;40.80;;
5688;SDS011;2869;50.432;8.680;2023-02-16T00:38:10;225.47;;;40.90;;
5688;SDS011;2869;50.432;8.680;2023-02-16T00:40:37;244.37;;;38.83;;
5688;SDS011;2869;50.432;8.680;2023-02-16T00:43:04;241.37;;;39.83;;
5688;SDS011;2869;50.432;8.680;2023-02-16T00:45:32;248.60;;;45.17;;
5688;SDS011;2869;50.432;8.680;2023-02-16T00:48:01;277.97;;;44.57;;
5688;SDS011;2869;50.432;8.680;2023-02-16T00:50:30;339.93;;;46.50;;
5688;SDS011;2869;50.432;8.680;2023-02-16T00:52:58;301.97;;;47.80;;
5688;SDS011;2869;50.432;8.680;2023-02-16T00:55:27;321.70;;;46.47;;
5688;SDS011;2869;50.432;8.680;2023-02-16T00:57:56;353.50;;;48.00;;
5688;SDS011;2869;50.432;8.680;2023-02-16T01:00:29;308.10;;;48.37;;
5688;SDS011;2869;50.432;8.680;2023-02-16T01:02:59;273.77;;;47.90;;
5688;SDS011;2869;50.432;8.680;2023-02-16T01:05:28;338.77;;;45.77;;
5688;SDS011;2869;50.432;8.680;2023-02-16T01:07:55;315.30;;;46.97;;
5688;SDS011;2869;50.432;8.680;2023-02-16T01:10:43;321.90;;;45.33;;
5688;SDS011;2869;50.432;8.680;2023-02-16T01:13:30;316.63;;;47.30;;
5688;SDS011;2869;50.432;8.680;2023-02-16T01:16:00;219.30;;;44.33;;
5688;SDS011;2869;50.432;8.680;2023-02-16T01:18:27;282.67;;;43.30;;
5688;SDS011;2869;50.432;8.680;2023-02-16T01:20:54;219.93;;;41.00;;
5688;SDS011;2869;50.432;8.680;2023-02-16T01:23:21;300.27;;;42.33;;
5688;SDS011;2869;50.432;8.680;2023-02-16T01:25:48;306.37;;;46.37;;
5688;SDS011;2869;50.432;8.680;2023-02-16T01:28:16;282.17;;;45.27;;
5688;SDS011;2869;50.432;8.680;2023-02-16T01:30:44;303.60;;;46.03;;
5688;SDS011;2869;50.432;8.680;2023-02-16T01:33:11;334.73;;;43.73;;
5688;SDS011;2869;50.432;8.680;2023-02-16T01:35:38;309.47;;;43.73;;
5688;SDS011;2869;50.432;8.680;2023-02-16T01:38:08;236.90;;;43.70;;
5688;SDS011;2869;50.432;8.680;2023-02-16T01:40:41;212.80;;;37.83;;
5688;SDS011;2869;50.432;8.680;2023-02-16T01:43:15;216.63;;;39.20;;
5688;SDS011;2869;50.432;8.680;2023-02-16T01:45:46;271.00;;;42.27;;
5688;SDS011;2869;50.432;8.680;2023-02-16T01:48:18;266.50;;;40.90;;
5688;SDS011;2869;50.432;8.680;2023-02-16T01:50:47;309.50;;;45.07;;
5688;SDS011;2869;50.432;8.680;2023-02-16T01:53:24;343.30;;;48.60;;
5688;SDS011;2869;50.432;8.680;2023-02-16T01:55:55;269.97;;;39.47;;
5688;SDS011;2869;50.432;8.680;2023-02-16T01:58:27;233.67;;;41.07;;
5688;SDS011;2869;50.432;8.680;2023-02-16T02:01:19;156.43;;;38.07;;
5688;SDS011;2869;50.432;8.680;2023-02-16T02:04:18;238.40;;;38.10;;
5688;SDS011;2869;50.432;8.680;2023-02-16T02:07:06;168.30;;;38.87;;
5688;SDS011;2869;50.432;8.680;2023-02-16T02:09:38;156.00;;;37.77;;
5688;SDS011;2869;50.432;8.680;2023-02-16T02:12:11;144.83;;;37.37;;
5688;SDS011;2869;50.432;8.680;2023-02-16T02:14:41;146.53;;;35.30;;
5688;SDS011;2869;50.432;8.680;2023-02-16T02:17:09;127.93;;;32.93;;
5688;SDS011;2869;50.432;8.680;2023-02-16T02:19:47;117.83;;;32.97;;
5688;SDS011;2869;50.432;8.680;2023-02-16T02:29:18;103.67;;;31.50;;
5688;SDS011;2869;50.432;8.680;2023-02-16T02:32:07;121.70;;;32.30;;
5688;SDS011;2869;50.432;8.680;2023-02-16T02:34:47;100.93;;;30.03;;
5688;SDS011;2869;50.432;8.680;2023-02-16T02:37:25;115.20;;;34.50;;
5688;SDS011;2869;50.432;8.680;2023-02-16T02:40:01;127.70;;;34.57;;
5688;SDS011;2869;50.432;8.680;2023-02-16T02:42:36;116.33;;;33.00;;
5688;SDS011;2869;50.432;8.680;2023-02-16T02:45:12;140.07;;;34.77;;
5688;SDS011;2869;50.432;8.680;2023-02-16T02:47:44;141.60;;;33.00;;
5688;SDS011;2869;50.432;8.680;2023-02-16T02:50:24;142.87;;;34.80;;
5688;SDS011;2869;50.432;8.680;2023-02-16T02:53:03;222.63;;;37.30;;
5688;SDS011;2869;50.432;8.680;2023-02-16T02:55:31;262.90;;;38.93;;
5688;SDS011;2869;50.432;8.680;2023-02-16T02:58:19;194.03;;;35.20;;
5688;SDS011;2869;50.432;8.680;2023-02-16T03:01:08;209.50;;;38.77;;
5688;SDS011;2869;50.432;8.680;2023-02-16T03:03:37;176.13;;;36.43;;
5688;SDS011;2869;50.432;8.680;2023-02-16T03:06:07;177.90;;;34.57;;
5688;SDS011;2869;50.432;8.680;2023-02-16T03:08:38;154.13;;;37.80;;
5688;SDS011;2869;50.432;8.680;2023-02-16T03:11:08;161.83;;;39.53;;
5688;SDS011;2869;50.432;8.680;2023-02-16T03:13:56;207.03;;;36.50;;
5688;SDS011;2869;50.432;8.680;2023-02-16T03:16:28;156.70;;;37.87;;
5688;SDS011;2869;50.432;8.680;2023-02-16T03:18:59;222.73;;;37.90;;
5688;SDS011;2869;50.432;8.680;2023-02-16T03:21:45;185.63;;;36.50;;
5688;SDS011;2869;50.432;8.680;2023-02-16T03:24:30;190.30;;;39.63;;
5688;SDS011;2869;50.432;8.680;2023-02-16T03:27:17;173.97;;;37.70;;
5688;SDS011;2869;50.432;8.680;2023-02-16T03:30:05;216.27;;;36.57;;
5688;SDS011;2869;50.432;8.680;2023-02-16T03:32:34;161.07;;;34.13;;
5688;SDS011;2869;50.432;8.680;2023-02-16T03:35:01;233.50;;;41.07;;
5688;SDS011;2869;50.432;8.680;2023-02-16T03:37:28;232.80;;;41.47;;
5688;SDS011;2869;50.432;8.680;2023-02-16T03:39:55;242.37;;;40.20;;
5688;SDS011;2869;50.432;8.680;2023-02-16T03:42:46;240.80;;;40.60;;
5688;SDS011;2869;50.432;8.680;2023-02-16T03:45:14;274.77;;;39.77;;
5688;SDS011;2869;50.432;8.680;2023-02-16T03:47:42;217.40;;;37.90;;
5688;SDS011;2869;50.432;8.680;2023-02-16T03:50:08;252.83;;;42.13;;
5688;SDS011;2869;50.432;8.680;2023-02-16T03:52:35;158.33;;;38.87;;
5688;SDS011;2869;50.432;8.680;2023-02-16T03:55:02;161.83;;;34.77;;
5688;SDS011;2869;50.432;8.680;2023-02-16T03:57:29;155.97;;;35.90;;
5688;SDS011;2869;50.432;8.680;2023-02-16T03:59:55;165.00;;;36.83;;
5688;SDS011;2869;50.432;8.680;2023-02-16T04:02:22;141.03;;;34.03;;
5688;SDS011;2869;50.432;8.680;2023-02-16T04:04:51;154.07;;;35.80;;
5688;SDS011;2869;50.432;8.680;2023-02-16T04:07:18;148.03;;;35.33;;
5688;SDS011;2869;50.432;8.680;2023-02-16T04:09:44;136.07;;;32.27;;
5688;SDS011;2869;50.432;8.680;2023-02-16T04:12:11;119.40;;;33.43;;
5688;SDS011;2869;50.432;8.680;2023-02-16T04:14:56;138.67;;;32.90;;
5688;SDS011;2869;50.432;8.680;2023-02-16T04:17:23;139.87;;;31.87;;
5688;SDS011;2869;50.432;8.680;2023-02-16T04:19:49;139.93;;;30.83;;
5688;SDS011;2869;50.432;8.680;2023-02-16T04:22:17;167.37;;;34.50;;
5688;SDS011;2869;50.432;8.680;2023-02-16T04:24:44;133.40;;;32.43;;
5688;SDS011;2869;50.432;8.680;2023-02-16T04:27:10;127.03;;;31.67;;
5688;SDS011;2869;50.432;8.680;2023-02-16T04:29:37;180.80;;;33.53;;
5688;SDS011;2869;50.432;8.680;2023-02-16T04:32:04;165.13;;;34.83;;
5688;SDS011;2869;50.432;8.680;2023-02-16T04:34:31;159.03;;;36.47;;
5688;SDS011;2869;50.432;8.680;2023-02-16T04:36:59;126.57;;;33.17;;
5688;SDS011;2869;50.432;8.680;2023-02-16T04:39:26;135.70;;;34.23;;
5688;SDS011;2869;50.432;8.680;2023-02-16T04:41:52;155.67;;;36.50;;
5688;SDS011;2869;50.432;8.680;2023-02-16T04:44:19;156.63;;;37.40;;
5688;SDS011;2869;50.432;8.680;2023-02-16T04:46:46;152.00;;;32.13;;
5688;SDS011;2869;50.432;8.680;2023-02-16T04:49:12;91.17;;;28.97;;
5688;SDS011;2869;50.432;8.680;2023-02-16T04:51:39;100.27;;;30.47;;
5688;SDS011;2869;50.432;8.680;2023-02-16T04:54:07;103.77;;;29.70;;
5688;SDS011;2869;50.432;8.680;2023-02-16T04:56:34;100.13;;;27.80;;
5688;SDS011;2869;50.432;8.680;2023-02-16T04:59:01;136.83;;;32.63;;
5688;SDS011;2869;50.432;8.680;2023-02-16T05:01:28;122.67;;;33.03;;
5688;SDS011;2869;50.432;8.680;2023-02-16T05:03:55;106.80;;;29.30;;
5688;SDS011;2869;50.432;8.680;2023-02-16T05:06:22;125.27;;;30.87;;
5688;SDS011;2869;50.432;8.680;2023-02-16T05:08:49;135.50;;;31.80;;
5688;SDS011;2869;50.432;8.680;2023-02-16T05:11:16;110.83;;;30.47;;
5688;SDS011;2869;50.432;8.680;2023-02-16T05:14:00;110.83;;;29.50;;
5688;SDS011;2869;50.432;8.680;2023-02-16T05:16:45;133.97;;;32.40;;
5688;SDS011;2869;50.432;8.680;2023-02-16T05:19:12;126.63;;;29.50;;
5688;SDS011;2869;50.432;8.680;2023-02-16T05:21:38;131.37;;;30.50;;
5688;SDS011;2869;50.432;8.680;2023-02-16T05:24:06;137.40;;;34.70;;
5688;SDS011;2869;50.432;8.680;2023-02-16T05:26:36;139.17;;;32.13;;
5688;SDS011;2869;50.432;8.680;2023-02-16T05:29:03;124.40;;;30.07;;
5688;SDS011;2869;50.432;8.680;2023-02-16T05:31:31;154.33;;;32.20;;
5688;SDS011;2869;50.432;8.680;2023-02-16T05:33:57;115.00;;;30.50;;
5688;SDS011;2869;50.432;8.680;2023-02-16T05:36:24;169.20;;;33.70;;
5688;SDS011;2869;50.432;8.680;2023-02-16T05:38:51;124.40;;;33.00;;
5688;SDS011;2869;50.432;8.680;2023-02-16T05:41:17;159.30;;;33.00;;
5688;SDS011;2869;50.432;8.680;2023-02-16T05:43:49;143.07;;;33.47;;
5688;SDS011;2869;50.432;8.680;2023-02-16T05:46:17;124.93;;;32.20;;
5688;SDS011;2869;50.432;8.680;2023-02-16T05:48:44;118.80;;;31.00;;
5688;SDS011;2869;50.432;8.680;2023-02-16T05:51:10;123.93;;;30.53;;
5688;SDS011;2869;50.432;8.680;2023-02-16T05:53:37;126.83;;;30.90;;
5688;SDS011;2869;50.432;8.680;2023-02-16T05:56:04;111.10;;;28.90;;
5688;SDS011;2869;50.432;8.680;2023-02-16T05:58:31;124.50;;;28.47;;
5688;SDS011;2869;50.432;8.680;2023-02-16T06:00:59;123.23;;;30.43;;
5688;SDS011;2869;50.432;8.680;2023-02-16T06:03:26;114.60;;;30.83;;
5688;SDS011;2869;50.432;8.680;2023-02-16T06:05:53;116.57;;;31.90;;
5688;SDS011;2869;50.432;8.680;2023-02-16T06:08:21;126.03;;;30.73;;
5688;SDS011;2869;50.432;8.680;2023-02-16T06:10:49;99.70;;;31.03;;
5688;SDS011;2869;50.432;8.680;2023-02-16T06:13:16;99.50;;;28.73;;
5688;SDS011;2869;50.432;8.680;2023-02-16T06:15:43;105.13;;;29.87;;
5688;SDS011;2869;50.432;8.680;2023-02-16T06:18:11;146.27;;;29.50;;
5688;SDS011;2869;50.432;8.680;2023-02-16T06:20:39;104.70;;;26.63;;
5688;SDS011;2869;50.432;8.680;2023-02-16T06:23:07;128.47;;;27.70;;
5688;SDS011;2869;50.432;8.680;2023-02-16T06:25:36;165.53;;;29.83;;
5688;SDS011;2869;50.432;8.680;2023-02-16T06:28:03;114.30;;;26.57;;
5688;SDS011;2869;50.432;8.680;2023-02-16T06:30:30;104.63;;;27.80;;
5688;SDS011;2869;50.432;8.680;2023-02-16T06:32:57;112.47;;;26.33;;
5688;SDS011;2869;50.432;8.680;2023-02-16T06:35:25;89.33;;;23.60;;
5688;SDS011;2869;50.432;8.680;2023-02-16T06:37:51;90.40;;;26.43;;
5688;SDS011;2869;50.432;8.680;2023-02-16T06:40:19;83.83;;;24.30;;
5688;SDS011;2869;50.432;8.680;2023-02-16T06:42:45;86.07;;;25.53;;
5688;SDS011;2869;50.432;8.680;2023-02-16T06:45:12;111.70;;;26.07;;
5688;SDS011;2869;50.432;8.680;2023-02-16T06:47:39;101.77;;;28.13;;
5688;SDS011;2869;50.432;8.680;2023-02-16T06:50:06;91.67;;;26.30;;
5688;SDS011;2869;50.432;8.680;2023-02-16T06:52:36;110.00;;;24.60;;
5688;SDS011;2869;50.432;8.680;2023-02-16T06:55:03;95.60;;;25.77;;
5688;SDS011;2869;50.432;8.680;2023-02-16T06:57:30;107.90;;;26.00;;
5688;SDS011;2869;50.432;8.680;2023-02-16T06:59:57;74.97;;;26.10;;
5688;SDS011;2869;50.432;8.680;2023-02-16T07:02:23;93.43;;;26.10;;
5688;SDS011;2869;50.432;8.680;2023-02-16T07:04:50;62.90;;;25.00;;
5688;SDS011;2869;50.432;8.680;2023-02-16T07:07:17;81.47;;;24.53;;
5688;SDS011;2869;50.432;8.680;2023-02-16T07:09:45;96.10;;;25.70;;
5688;SDS011;2869;50.432;8.680;2023-02-16T07:12:11;74.90;;;23.50;;
5688;SDS011;2869;50.432;8.680;2023-02-16T07:14:38;96.07;;;25.93;;
5688;SDS011;2869;50.432;8.680;2023-02-16T07:17:04;99.57;;;26.73;;
5688;SDS011;2869;50.432;8.680;2023-02-16T07:19:31;82.83;;;25.90;;
5688;SDS011;2869;50.432;8.680;2023-02-16T07:21:58;89.30;;;26.97;;
5688;SDS011;2869;50.432;8.680;2023-02-16T07:24:24;77.33;;;25.43;;
5688;SDS011;2869;50.432;8.680;2023-02-16T07:26:53;99.37;;;28.13;;
5688;SDS011;2869;50.432;8.680;2023-02-16T07:29:20;97.30;;;26.50;;
5688;SDS011;2869;50.432;8.680;2023-02-16T07:31:47;71.10;;;25.30;;
5688;SDS011;2869;50.432;8.680;2023-02-16T07:34:14;63.37;;;24.60;;
5688;SDS011;2869;50.432;8.680;2023-02-16T07:36:41;92.13;;;26.27;;
5688;SDS011;2869;50.432;8.680;2023-02-16T07:39:09;68.83;;;26.17;;
5688;SDS011;2869;50.432;8.680;2023-02-16T07:41:35;83.67;;;26.90;;
5688;SDS011;2869;50.432;8.680;2023-02-16T07:44:04;93.97;;;26.93;;
5688;SDS011;2869;50.432;8.680;2023-02-16T07:46:31;71.67;;;27.50;;
5688;SDS011;2869;50.432;8.680;2023-02-16T07:48:58;89.00;;;24.90;;
5688;SDS011;2869;50.432;8.680;2023-02-16T07:51:26;97.20;;;27.90;;
5688;SDS011;2869;50.432;8.680;2023-02-16T07:53:54;113.20;;;30.43;;
5688;SDS011;2869;50.432;8.680;2023-02-16T07:56:22;89.87;;;29.17;;
5688;SDS011;2869;50.432;8.680;2023-02-16T07:58:51;95.27;;;31.27;;
5688;SDS011;2869;50.432;8.680;2023-02-16T08:01:19;116.60;;;32.20;;
5688;SDS011;2869;50.432;8.680;2023-02-16T08:03:47;99.77;;;33.03;;
5688;SDS011;2869;50.432;8.680;2023-02-16T08:06:14;96.83;;;34.17;;
5688;SDS011;2869;50.432;8.680;2023-02-16T08:08:41;81.40;;;26.30;;
5688;SDS011;2869;50.432;8.680;2023-02-16T08:11:09;87.67;;;30.13;;
5688;SDS011;2869;50.432;8.680;2023-02-16T08:13:36;86.37;;;30.30;;
5688;SDS011;2869;50.432;8.680;2023-02-16T08:16:06;90.07;;;31.57;;
5688;SDS011;2869;50.432;8.680;2023-02-16T08:18:34;89.10;;;28.90;;
5688;SDS011;2869;50.432;8.680;2023-02-16T08:21:05;84.57;;;30.33;;
5688;SDS011;2869;50.432;8.680;2023-02-16T08:23:37;96.07;;;30.00;;
5688;SDS011;2869;50.432;8.680;2023-02-16T08:26:06;91.47;;;31.03;;
5688;SDS011;2869;50.432;8.680;2023-02-16T08:28:34;82.13;;;29.13;;
5688;SDS011;2869;50.432;8.680;2023-02-16T08:31:02;92.60;;;30.97;;
5688;SDS011;2869;50.432;8.680;2023-02-16T08:33:30;70.37;;;28.80;;
5688;SDS011;2869;50.432;8.680;2023-02-16T08:35:58;84.03;;;28.40;;
5688;SDS011;2869;50.432;8.680;2023-02-16T08:38:25;86.13;;;29.73;;
5688;SDS011;2869;50.432;8.680;2023-02-16T08:40:51;82.37;;;28.80;;
5688;SDS011;2869;50.432;8.680;2023-02-16T08:43:19;72.63;;;27.57;;
5688;SDS011;2869;50.432;8.680;2023-02-16T08:45:46;76.80;;;28.30;;
5688;SDS011;2869;50.432;8.680;2023-02-16T08:48:13;69.83;;;27.23;;
5688;SDS011;2869;50.432;8.680;2023-02-16T08:50:42;80.87;;;28.20;;
5688;SDS011;2869;50.432;8.680;2023-02-16T08:53:12;79.73;;;29.50;;
5688;SDS011;2869;50.432;8.680;2023-02-16T08:55:39;81.17;;;28.30;;
5688;SDS011;2869;50.432;8.680;2023-02-16T08:58:05;66.13;;;27.87;;
5688;SDS011;2869;50.432;8.680;2023-02-16T09:00:32;72.60;;;28.33;;
5688;SDS011;2869;50.432;8.680;2023-02-16T09:02:59;82.37;;;30.53;;
5688;SDS011;2869;50.432;8.680;2023-02-16T09:05:26;79.43;;;29.30;;
5688;SDS011;2869;50.432;8.680;2023-02-16T09:07:53;78.73;;;29.47;;
5688;SDS011;2869;50.432;8.680;2023-02-16T09:10:21;109.80;;;30.33;;
5688;SDS011;2869;50.432;8.680;2023-02-16T09:12:48;77.03;;;30.10;;
5688;SDS011;2869;50.432;8.680;2023-02-16T09:15:15;103.87;;;32.30;;
5688;SDS011;2869;50.432;8.680;2023-02-16T09:17:42;89.50;;;30.93;;
5688;SDS011;2869;50.432;8.680;2023-02-16T09:20:10;93.33;;;32.77;;
5688;SDS011;2869;50.432;8.680;2023-02-16T09:22:37;85.83;;;32.57;;
5688;SDS011;2869;50.432;8.680;2023-02-16T09:25:04;85.80;;;30.87;;
5688;SDS011;2869;50.432;8.680;2023-02-16T09:27:33;91.93;;;33.17;;
5688;SDS011;2869;50.432;8.680;2023-02-16T09:30:00;89.33;;;32.07;;
5688;SDS011;2869;50.432;8.680;2023-02-16T09:32:27;106.07;;;31.83;;
5688;SDS011;2869;50.432;8.680;2023-02-16T09:34:54;122.00;;;31.23;;
5688;SDS011;2869;50.432;8.680;2023-02-16T09:37:21;92.37;;;32.00;;
5688;SDS011;2869;50.432;8.680;2023-02-16T09:39:47;113.03;;;32.37;;
5688;SDS011;2869;50.432;8.680;2023-02-16T09:42:20;100.23;;;32.83;;
5688;SDS011;2869;50.432;8.680;2023-02-16T09:45:01;89.37;;;31.30;;
5688;SDS011;2869;50.432;8.680;2023-02-16T09:47:34;97.33;;;34.40;;
5688;SDS011;2869;50.432;8.680;2023-02-16T09:50:05;109.07;;;34.00;;
5688;SDS011;2869;50.432;8.680;2023-02-16T09:52:39;99.80;;;33.53;;
5688;SDS011;2869;50.432;8.680;2023-02-16T09:55:10;97.37;;;33.33;;
5688;SDS011;2869;50.432;8.680;2023-02-16T09:57:41;89.07;;;34.57;;
5688;SDS011;2869;50.432;8.680;2023-02-16T10:00:25;109.10;;;33.57;;
5688;SDS011;2869;50.432;8.680;2023-02-16T10:03:06;116.67;;;35.77;;
5688;SDS011;2869;50.432;8.680;2023-02-16T10:05:48;94.47;;;34.17;;
5688;SDS011;2869;50.432;8.680;2023-02-16T10:08:23;90.73;;;33.73;;
5688;SDS011;2869;50.432;8.680;2023-02-16T10:10:55;92.80;;;33.43;;
5688;SDS011;2869;50.432;8.680;2023-02-16T10:13:33;88.10;;;32.97;;
5688;SDS011;2869;50.432;8.680;2023-02-16T10:16:10;116.50;;;38.00;;
5688;SDS011;2869;50.432;8.680;2023-02-16T10:18:41;110.73;;;34.30;;
5688;SDS011;2869;50.432;8.680;2023-02-16T10:21:14;94.13;;;37.30;;
5688;SDS011;2869;50.432;8.680;2023-02-16T10:23:44;92.20;;;35.07;;
5688;SDS011;2869;50.432;8.680;2023-02-16T10:26:17;104.20;;;35.73;;
5688;SDS011;2869;50.432;8.680;2023-02-16T10:28:50;89.10;;;34.67;;
5688;SDS011;2869;50.432;8.680;2023-02-16T10:31:23;91.77;;;36.60;;
5688;SDS011;2869;50.432;8.680;2023-02-16T10:33:59;104.53;;;34.30;;
5688;SDS011;2869;50.432;8.680;2023-02-16T10:36:37;96.67;;;36.33;;
5688;SDS011;2869;50.432;8.680;2023-02-16T10:39:23;107.00;;;38.70;;
5688;SDS011;2869;50.432;8.680;2023-02-16T10:41:57;103.37;;;36.93;;
5688;SDS011;2869;50.432;8.680;2023-02-16T10:44:29;88.10;;;34.90;;
5688;SDS011;2869;50.432;8.680;2023-02-16T10:47:00;108.70;;;37.33;;
5688;SDS011;2869;50.432;8.680;2023-02-16T10:49:30;107.73;;;37.93;;
5688;SDS011;2869;50.432;8.680;2023-02-16T10:52:00;105.07;;;37.67;;
5688;SDS011;2869;50.432;8.680;2023-02-16T10:54:28;117.30;;;36.67;;
5688;SDS011;2869;50.432;8.680;2023-02-16T10:56:57;122.33;;;35.00;;
5688;SDS011;2869;50.432;8.680;2023-02-16T10:59:29;129.73;;;39.73;;
5688;SDS011;2869;50.432;8.680;2023-02-16T11:02:00;117.63;;;38.20;;
5688;SDS011;2869;50.432;8.680;2023-02-16T11:04:42;98.30;;;35.20;;
5688;SDS011;2869;50.432;8.680;2023-02-16T11:07:11;105.87;;;38.77;;
5688;SDS011;2869;50.432;8.680;2023-02-16T11:09:40;117.33;;;37.23;;
5688;SDS011;2869;50.432;8.680;2023-02-16T11:12:15;108.53;;;39.00;;
5688;SDS011;2869;50.432;8.680;2023-02-16T11:14:48;108.07;;;35.00;;
5688;SDS011;2869;50.432;8.680;2023-02-16T11:17:19;112.80;;;38.90;;
5688;SDS011;2869;50.432;8.680;2023-02-16T11:19:47;110.53;;;37.90;;
5688;SDS011;2869;50.432;8.680;2023-02-16T11:22:31;110.90;;;39.67;;
5688;SDS011;2869;50.432;8.680;2023-02-16T11:25:12;111.27;;;39.70;;
5688;SDS011;2869;50.432;8.680;2023-02-16T11:27:48;103.17;;;37.40;;
5688;SDS011;2869;50.432;8.680;2023-02-16T11:30:17;107.00;;;38.00;;
5688;SDS011;2869;50.432;8.680;2023-02-16T11:32:53;100.43;;;36.20;;
5688;SDS011;2869;50.432;8.680;2023-02-16T11:35:20;111.20;;;38.30;;
5688;SDS011;2869;50.432;8.680;2023-02-16T11:37:47;108.90;;;39.53;;
5688;SDS011;2869;50.432;8.680;2023-02-16T11:40:17;107.50;;;39.53;;
5688;SDS011;2869;50.432;8.680;2023-02-16T11:42:47;102.83;;;38.40;;
5688;SDS011;2869;50.432;8.680;2023-02-16T11:45:26;113.07;;;37.10;;
5688;SDS011;2869;50.432;8.680;2023-02-16T11:47:57;108.20;;;38.43;;
5688;SDS011;2869;50.432;8.680;2023-02-16T11:50:26;94.37;;;38.30;;
5688;SDS011;2869;50.432;8.680;2023-02-16T11:52:56;102.83;;;36.40;;
5688;SDS011;2869;50.432;8.680;2023-02-16T11:55:39;88.40;;;34.80;;
5688;SDS011;2869;50.432;8.680;2023-02-16T11:58:14;106.97;;;37.93;;
5688;SDS011;2869;50.432;8.680;2023-02-16T12:00:43;100.80;;;36.03;;
5688;SDS011;2869;50.432;8.680;2023-02-16T12:03:29;106.97;;;38.70;;
5688;SDS011;2869;50.432;8.680;2023-02-16T12:06:24;103.53;;;36.40;;
5688;SDS011;2869;50.432;8.680;2023-02-16T12:09:07;100.53;;;36.77;;
5688;SDS011;2869;50.432;8.680;2023-02-16T12:11:44;99.40;;;37.87;;
5688;SDS011;2869;50.432;8.680;2023-02-16T12:14:21;96.77;;;37.40;;
5688;SDS011;2869;50.432;8.680;2023-02-16T12:16:58;93.23;;;35.60;;
5688;SDS011;2869;50.432;8.680;2023-02-16T12:19:35;102.33;;;38.60;;
5688;SDS011;2869;50.432;8.680;2023-02-16T12:22:08;102.90;;;39.73;;
5688;SDS011;2869;50.432;8.680;2023-02-16T12:24:50;90.37;;;36.17;;
5688;SDS011;2869;50.432;8.680;2023-02-16T12:27:30;95.13;;;37.60;;
5688;SDS011;2869;50.432;8.680;2023-02-16T12:30:06;101.77;;;39.03;;
5688;SDS011;2869;50.432;8.680;2023-02-16T12:32:48;101.87;;;37.10;;
5688;SDS011;2869;50.432;8.680;2023-02-16T12:35:32;89.20;;;36.77;;
5688;SDS011;2869;50.432;8.680;2023-02-16T12:38:12;83.97;;;34.50;;
5688;SDS011;2869;50.432;8.680;2023-02-16T12:40:49;84.23;;;35.70;;
5688;SDS011;2869;50.432;8.680;2023-02-16T12:43:27;80.17;;;32.73;;
5688;SDS011;2869;50.432;8.680;2023-02-16T12:46:00;80.03;;;34.90;;
5688;SDS011;2869;50.432;8.680;2023-02-16T12:48:35;88.17;;;34.73;;
5688;SDS011;2869;50.432;8.680;2023-02-16T12:51:08;75.27;;;33.80;;
5688;SDS011;2869;50.432;8.680;2023-02-16T12:53:42;77.57;;;32.37;;
5688;SDS011;2869;50.432;8.680;2023-02-16T12:56:14;77.63;;;33.63;;
5688;SDS011;2869;50.432;8.680;2023-02-16T12:58:46;80.53;;;35.20;;
5688;SDS011;2869;50.432;8.680;2023-02-16T13:01:19;70.67;;;31.00;;
5688;SDS011;2869;50.432;8.680;2023-02-16T13:03:52;72.47;;;31.93;;
5688;SDS011;2869;50.432;8.680;2023-02-16T13:06:23;76.20;;;34.70;;
5688;SDS011;2869;50.432;8.680;2023-02-16T13:08:55;77.10;;;32.13;;
5688;SDS011;2869;50.432;8.680;2023-02-16T13:11:32;71.57;;;32.50;;
5688;SDS011;2869;50.432;8.680;2023-02-16T13:14:03;84.53;;;32.23;;
5688;SDS011;2869;50.432;8.680;2023-02-16T13:16:38;67.03;;;31.03;;
5688;SDS011;2869;50.432;8.680;2023-02-16T13:19:09;74.20;;;33.37;;
5688;SDS011;2869;50.432;8.680;2023-02-16T13:21:43;83.80;;;34.93;;
5688;SDS011;2869;50.432;8.680;2023-02-16T13:24:42;61.37;;;27.70;;
5688;SDS011;2869;50.432;8.680;2023-02-16T13:27:16;76.13;;;34.47;;
5688;SDS011;2869;50.432;8.680;2023-02-16T13:29:59;72.13;;;33.30;;
5688;SDS011;2869;50.432;8.680;2023-02-16T13:32:49;77.33;;;34.17;;
5688;SDS011;2869;50.432;8.680;2023-02-16T13:35:38;70.53;;;32.90;;
5688;SDS011;2869;50.432;8.680;2023-02-16T13:38:35;76.53;;;33.40;;
5688;SDS011;2869;50.432;8.680;2023-02-16T13:41:26;68.03;;;33.50;;
5688;SDS011;2869;50.432;8.680;2023-02-16T13:44:13;77.83;;;34.27;;
5688;SDS011;2869;50.432;8.680;2023-02-16T13:46:42;65.50;;;31.43;;
5688;SDS011;2869;50.432;8.680;2023-02-16T13:49:25;70.13;;;33.80;;
5688;SDS011;2869;50.432;8.680;2023-02-16T13:51:56;74.43;;;32.97;;
5688;SDS011;2869;50.432;8.680;2023-02-16T13:54:26;67.30;;;31.23;;
5688;SDS011;2869;50.432;8.680;2023-02-16T13:56:55;63.67;;;32.60;;
5688;SDS011;2869;50.432;8.680;2023-02-16T14:02:15;65.47;;;32.67;;
5688;SDS011;2869;50.432;8.680;2023-02-16T14:05:21;70.17;;;32.47;;
5688;SDS011;2869;50.432;8.680;2023-02-16T14:08:18;70.93;;;34.17;;
5688;SDS011;2869;50.432;8.680;2023-02-16T14:10:55;69.00;;;32.80;;
5688;SDS011;2869;50.432;8.680;2023-02-16T14:13:47;73.03;;;34.20;;
5688;SDS011;2869;50.432;8.680;2023-02-16T14:19:15;71.73;;;33.60;;
5688;SDS011;2869;50.432;8.680;2023-02-16T14:21:46;73.30;;;32.80;;
5688;SDS011;2869;50.432;8.680;2023-02-16T14:24:22;65.43;;;31.70;;
5688;SDS011;2869;50.432;8.680;2023-02-16T14:26:58;74.93;;;33.67;;
5688;SDS011;2869;50.432;8.680;2023-02-16T14:29:27;68.90;;;34.30;;
5688;SDS011;2869;50.432;8.680;2023-02-16T14:31:58;74.80;;;34.50;;
5688;SDS011;2869;50.432;8.680;2023-02-16T14:34:30;71.90;;;33.40;;
5688;SDS011;2869;50.432;8.680;2023-02-16T14:37:09;74.13;;;35.53;;
5688;SDS011;2869;50.432;8.680;2023-02-16T14:39:52;78.10;;;34.73;;
5688;SDS011;2869;50.432;8.680;2023-02-16T14:42:23;80.50;;;35.70;;
5688;SDS011;2869;50.432;8.680;2023-02-16T14:44:54;74.43;;;34.87;;
5688;SDS011;2869;50.432;8.680;2023-02-16T14:47:35;76.37;;;34.27;;
5688;SDS011;2869;50.432;8.680;2023-02-16T14:50:16;78.73;;;34.60;;
5688;SDS011;2869;50.432;8.680;2023-02-16T14:53:16;78.90;;;36.67;;
5688;SDS011;2869;50.432;8.680;2023-02-16T14:56:05;72.57;;;33.30;;
5688;SDS011;2869;50.432;8.680;2023-02-16T14:58:52;74.73;;;34.77;;
5688;SDS011;2869;50.432;8.680;2023-02-16T15:01:21;67.30;;;33.20;;
5688;SDS011;2869;50.432;8.680;2023-02-16T15:03:49;65.90;;;32.00;;
5688;SDS011;2869;50.432;8.680;2023-02-16T15:06:20;74.43;;;34.50;;
5688;SDS011;2869;50.432;8.680;2023-02-16T15:08:52;73.13;;;34.63;;
5688;SDS011;2869;50.432;8.680;2023-02-16T15:11:22;75.07;;;32.67;;
5688;SDS011;2869;50.432;8.680;2023-02-16T15:13:55;66.27;;;33.23;;
5688;SDS011;2869;50.432;8.680;2023-02-16T15:16:28;66.10;;;34.17;;
5688;SDS011;2869;50.432;8.680;2023-02-16T15:18:57;63.73;;;32.20;;
5688;SDS011;2869;50.432;8.680;2023-02-16T15:21:30;66.93;;;33.60;;